Flugplatz Osnabrück-Atterheide

Für EDWO sind keine METAR/TAF Berichte vorhanden.
Es werden die Flugwettermeldungen vom Flugplatz Münster Osnabrück in 25 km Entfernung angezeigt.

Bericht für EDDG

vom 27.01. um 05:20 UTC

Wind 9 kt aus 190°

Sichtweite 10 km oder mehr

schwacher Regen

gering bewölkt in 1500 ft

aufgebrochene Bewölkung in 3800 ft

Temperatur 7.0°C

Taupunkt 5.0°C

Luftfeuchtigkeit 87%

Luftdruck 1008 hPa

EDDG 270520Z 19009KT 160V220 9999 -RA FEW015 BKN038 07/05 Q1008 TEMPO RA

Prognose für EDDG

vom 27.01. um 00:00 UTC

Zwischen 00:00 UTC und 00:00 UTC

Wind 8 kt aus 170°

Sichtweite 10 km oder mehr

aufgebrochene Bewölkung in 3000 ft


Zwischen 00:00 UTC und 00:00 UTC zeitweise

Regen

aufgebrochene Bewölkung in 1000 ft


Zwischen 00:00 UTC und 00:00 UTC zeitweise

aufgebrochene Bewölkung in 1000 ft


Zwischen 00:00 UTC und 00:00 UTC zeitweise

Regenschauer

aufgebrochene Bewölkung in 1000 ft


Am 28.01. zwischen 00:00 und 00:00 UTC übergehend zu

Wind 12 kt aus 230°

Sichtweite 10 km oder mehr

aufgebrochene Bewölkung in 3000 ft

TAF EDDG 270500Z 2706/2806 17008KT 9999 BKN030 TEMPO 2706/2709 RA BKN010 TEMPO 2709/2713 BKN010 TEMPO 2723/2806 SHRA BKN010TCU BECMG 2804/2806 23012KT
Impressum